createdAt,value
2023-02-11T00:06:02.014Z,50.70
2023-02-11T00:27:47.758Z,51.20
2023-02-11T00:49:33.783Z,54.20
2023-02-11T01:11:22.296Z,55.50
2023-02-11T01:33:07.972Z,57.00
2023-02-11T01:55:18.331Z,53.30
2023-02-11T02:17:04.063Z,49.80
2023-02-11T02:38:55.638Z,45.30
2023-02-11T03:00:48.150Z,47.90
2023-02-11T03:22:38.651Z,48.00
2023-02-11T03:44:27.579Z,51.20
2023-02-11T04:06:13.341Z,42.20
2023-02-11T04:27:59.024Z,42.90
2023-02-11T04:49:45.079Z,46.40
2023-02-11T05:11:30.793Z,49.00
2023-02-11T05:33:17.192Z,46.20
2023-02-11T05:55:03.140Z,44.90
2023-02-11T06:16:48.772Z,45.10
2023-02-11T06:38:35.239Z,50.00
2023-02-11T07:11:43.867Z,41.30
2023-02-11T07:33:29.683Z,41.90
2023-02-11T08:16:59.359Z,44.40
2023-02-11T08:44:40.872Z,43.80
2023-02-11T09:06:27.464Z,42.20
2023-02-11T09:28:13.242Z,38.90
2023-02-11T09:50:03.228Z,33.30
2023-02-11T10:11:57.105Z,29.10
2023-02-11T10:33:48.177Z,29.30
2023-02-11T10:55:34.046Z,32.90
2023-02-11T11:17:21.896Z,30.80
2023-02-11T11:39:22.011Z,30.40
2023-02-11T12:01:21.672Z,34.60
2023-02-11T12:23:25.991Z,35.20
2023-02-11T12:45:25.942Z,28.20
2023-02-11T13:07:18.090Z,32.90
2023-02-11T13:29:16.937Z,33.30
2023-02-11T13:51:06.167Z,34.70
2023-02-11T14:13:20.737Z,31.80
2023-02-11T14:35:15.147Z,32.20
2023-02-11T14:57:14.475Z,28.10
2023-02-11T15:19:05.521Z,31.60
2023-02-11T15:41:00.860Z,35.00
2023-02-11T16:02:50.909Z,31.80
2023-02-11T16:24:39.196Z,32.40
2023-02-11T16:46:25.034Z,31.20
2023-02-11T17:08:12.260Z,29.90
2023-02-11T17:29:58.198Z,28.40
2023-02-11T17:51:43.970Z,29.40
2023-02-11T18:13:29.971Z,27.20
2023-02-11T18:35:17.001Z,29.40
2023-02-11T18:57:02.721Z,29.40
2023-02-11T19:18:48.425Z,28.30
2023-02-11T19:40:34.266Z,32.70
2023-02-11T20:02:19.937Z,28.40
2023-02-11T20:24:05.970Z,28.80
2023-02-11T20:45:52.090Z,28.50
2023-02-11T21:07:39.174Z,29.40
2023-02-11T21:33:27.133Z,28.50
2023-02-11T21:55:13.127Z,31.30
2023-02-11T22:16:59.114Z,32.30
2023-02-11T22:38:44.818Z,30.00
2023-02-11T23:00:36.895Z,30.20
2023-02-11T23:22:22.576Z,30.80
2023-02-11T23:44:08.286Z,31.40
